sensor_id;sensor_type;location;lat;lon;timestamp;P1;durP1;ratioP1;P2;durP2;ratioP2
77018;SDS011;66044;53.142;17.962;2024-01-07T00:00:48;11.30;;;3.70;;
77018;SDS011;66044;53.142;17.962;2024-01-07T00:03:35;11.90;;;3.80;;
77018;SDS011;66044;53.142;17.962;2024-01-07T00:06:01;12.70;;;4.60;;
77018;SDS011;66044;53.142;17.962;2024-01-07T00:08:28;11.40;;;4.40;;
77018;SDS011;66044;53.142;17.962;2024-01-07T00:10:54;13.50;;;4.60;;
77018;SDS011;66044;53.142;17.962;2024-01-07T00:13:20;12.60;;;4.40;;
77018;SDS011;66044;53.142;17.962;2024-01-07T00:15:47;14.50;;;4.70;;
77018;SDS011;66044;53.142;17.962;2024-01-07T00:18:14;16.00;;;5.60;;
77018;SDS011;66044;53.142;17.962;2024-01-07T00:20:40;16.90;;;5.50;;
77018;SDS011;66044;53.142;17.962;2024-01-07T00:23:06;16.70;;;5.20;;
77018;SDS011;66044;53.142;17.962;2024-01-07T00:25:33;14.00;;;4.90;;
77018;SDS011;66044;53.142;17.962;2024-01-07T00:27:59;10.70;;;4.20;;
77018;SDS011;66044;53.142;17.962;2024-01-07T00:30:26;13.70;;;4.30;;
77018;SDS011;66044;53.142;17.962;2024-01-07T00:32:52;10.60;;;4.50;;
77018;SDS011;66044;53.142;17.962;2024-01-07T00:35:19;12.40;;;4.80;;
77018;SDS011;66044;53.142;17.962;2024-01-07T00:37:45;14.70;;;5.20;;
77018;SDS011;66044;53.142;17.962;2024-01-07T00:40:12;12.20;;;3.80;;
77018;SDS011;66044;53.142;17.962;2024-01-07T00:42:38;12.20;;;4.70;;
77018;SDS011;66044;53.142;17.962;2024-01-07T00:45:05;12.50;;;4.20;;
77018;SDS011;66044;53.142;17.962;2024-01-07T00:47:32;12.60;;;4.40;;
77018;SDS011;66044;53.142;17.962;2024-01-07T00:49:58;12.70;;;3.90;;
77018;SDS011;66044;53.142;17.962;2024-01-07T00:52:24;11.60;;;4.20;;
77018;SDS011;66044;53.142;17.962;2024-01-07T00:54:51;18.40;;;4.70;;
77018;SDS011;66044;53.142;17.962;2024-01-07T00:57:17;12.40;;;4.70;;
77018;SDS011;66044;53.142;17.962;2024-01-07T00:59:44;13.70;;;4.60;;
77018;SDS011;66044;53.142;17.962;2024-01-07T01:02:10;11.80;;;4.00;;
77018;SDS011;66044;53.142;17.962;2024-01-07T01:04:40;9.60;;;3.00;;
77018;SDS011;66044;53.142;17.962;2024-01-07T01:07:23;8.20;;;2.40;;
77018;SDS011;66044;53.142;17.962;2024-01-07T01:09:49;8.50;;;2.90;;
77018;SDS011;66044;53.142;17.962;2024-01-07T01:12:16;10.20;;;2.70;;
77018;SDS011;66044;53.142;17.962;2024-01-07T01:14:42;8.30;;;2.40;;
77018;SDS011;66044;53.142;17.962;2024-01-07T01:17:09;6.90;;;2.20;;
77018;SDS011;66044;53.142;17.962;2024-01-07T01:19:36;7.50;;;2.80;;
77018;SDS011;66044;53.142;17.962;2024-01-07T01:22:03;7.20;;;2.60;;
77018;SDS011;66044;53.142;17.962;2024-01-07T01:24:29;8.40;;;2.80;;
77018;SDS011;66044;53.142;17.962;2024-01-07T01:26:55;7.30;;;2.60;;
77018;SDS011;66044;53.142;17.962;2024-01-07T01:29:22;12.60;;;3.70;;
77018;SDS011;66044;53.142;17.962;2024-01-07T01:31:48;11.10;;;3.20;;
77018;SDS011;66044;53.142;17.962;2024-01-07T01:34:15;12.90;;;3.70;;
77018;SDS011;66044;53.142;17.962;2024-01-07T01:36:41;9.30;;;3.30;;
77018;SDS011;66044;53.142;17.962;2024-01-07T01:39:08;9.50;;;3.60;;
77018;SDS011;66044;53.142;17.962;2024-01-07T01:41:34;11.10;;;4.20;;
77018;SDS011;66044;53.142;17.962;2024-01-07T01:44:01;11.70;;;4.00;;
77018;SDS011;66044;53.142;17.962;2024-01-07T01:46:28;10.90;;;3.60;;
77018;SDS011;66044;53.142;17.962;2024-01-07T01:48:56;9.60;;;3.30;;
77018;SDS011;66044;53.142;17.962;2024-01-07T01:51:23;12.00;;;3.80;;
77018;SDS011;66044;53.142;17.962;2024-01-07T01:53:50;9.80;;;3.70;;
77018;SDS011;66044;53.142;17.962;2024-01-07T01:56:17;10.30;;;3.30;;
77018;SDS011;66044;53.142;17.962;2024-01-07T01:58:46;13.50;;;4.40;;
77018;SDS011;66044;53.142;17.962;2024-01-07T02:01:14;9.70;;;3.60;;
77018;SDS011;66044;53.142;17.962;2024-01-07T02:03:41;9.80;;;3.80;;
77018;SDS011;66044;53.142;17.962;2024-01-07T02:06:08;14.00;;;4.70;;
77018;SDS011;66044;53.142;17.962;2024-01-07T02:08:35;11.50;;;4.30;;
77018;SDS011;66044;53.142;17.962;2024-01-07T02:14:00;10.10;;;3.60;;
77018;SDS011;66044;53.142;17.962;2024-01-07T02:16:27;12.80;;;4.10;;
77018;SDS011;66044;53.142;17.962;2024-01-07T02:18:53;17.20;;;5.10;;
77018;SDS011;66044;53.142;17.962;2024-01-07T02:21:20;15.90;;;4.60;;
77018;SDS011;66044;53.142;17.962;2024-01-07T02:23:46;13.90;;;4.80;;
77018;SDS011;66044;53.142;17.962;2024-01-07T02:26:12;13.30;;;4.40;;
77018;SDS011;66044;53.142;17.962;2024-01-07T02:28:39;16.90;;;5.00;;
77018;SDS011;66044;53.142;17.962;2024-01-07T02:31:05;10.80;;;4.10;;
77018;SDS011;66044;53.142;17.962;2024-01-07T02:33:32;11.30;;;4.20;;
77018;SDS011;66044;53.142;17.962;2024-01-07T02:35:58;13.60;;;4.80;;
77018;SDS011;66044;53.142;17.962;2024-01-07T02:38:25;13.90;;;4.50;;
77018;SDS011;66044;53.142;17.962;2024-01-07T02:40:51;14.20;;;5.30;;
77018;SDS011;66044;53.142;17.962;2024-01-07T02:43:18;14.40;;;4.70;;
77018;SDS011;66044;53.142;17.962;2024-01-07T02:45:44;12.40;;;4.80;;
77018;SDS011;66044;53.142;17.962;2024-01-07T02:48:10;12.60;;;4.50;;
77018;SDS011;66044;53.142;17.962;2024-01-07T02:50:37;11.40;;;5.20;;
77018;SDS011;66044;53.142;17.962;2024-01-07T02:53:03;14.60;;;5.10;;
77018;SDS011;66044;53.142;17.962;2024-01-07T02:55:30;16.30;;;5.40;;
77018;SDS011;66044;53.142;17.962;2024-01-07T02:57:56;13.00;;;4.30;;
77018;SDS011;66044;53.142;17.962;2024-01-07T03:00:23;13.90;;;4.60;;
77018;SDS011;66044;53.142;17.962;2024-01-07T03:02:49;10.90;;;4.40;;
77018;SDS011;66044;53.142;17.962;2024-01-07T03:05:16;14.10;;;5.20;;
77018;SDS011;66044;53.142;17.962;2024-01-07T03:07:42;13.20;;;4.90;;
77018;SDS011;66044;53.142;17.962;2024-01-07T03:10:09;16.30;;;5.40;;
77018;SDS011;66044;53.142;17.962;2024-01-07T03:12:35;14.50;;;5.80;;
77018;SDS011;66044;53.142;17.962;2024-01-07T03:15:02;11.80;;;5.20;;
77018;SDS011;66044;53.142;17.962;2024-01-07T03:17:29;13.20;;;4.80;;
77018;SDS011;66044;53.142;17.962;2024-01-07T03:19:55;11.60;;;4.90;;
77018;SDS011;66044;53.142;17.962;2024-01-07T03:22:22;12.20;;;4.80;;
77018;SDS011;66044;53.142;17.962;2024-01-07T03:24:49;14.10;;;5.60;;
77018;SDS011;66044;53.142;17.962;2024-01-07T03:27:15;15.80;;;6.10;;
77018;SDS011;66044;53.142;17.962;2024-01-07T03:29:42;14.70;;;5.70;;
77018;SDS011;66044;53.142;17.962;2024-01-07T03:32:08;13.00;;;5.30;;
77018;SDS011;66044;53.142;17.962;2024-01-07T03:34:35;13.20;;;5.70;;
77018;SDS011;66044;53.142;17.962;2024-01-07T03:37:01;14.70;;;5.50;;
77018;SDS011;66044;53.142;17.962;2024-01-07T03:39:28;15.20;;;5.90;;
77018;SDS011;66044;53.142;17.962;2024-01-07T03:41:58;13.30;;;5.20;;
77018;SDS011;66044;53.142;17.962;2024-01-07T03:44:25;14.80;;;5.30;;
77018;SDS011;66044;53.142;17.962;2024-01-07T03:46:51;16.90;;;6.40;;
77018;SDS011;66044;53.142;17.962;2024-01-07T03:49:17;16.50;;;6.10;;
77018;SDS011;66044;53.142;17.962;2024-01-07T03:51:44;11.60;;;4.60;;
77018;SDS011;66044;53.142;17.962;2024-01-07T03:54:10;15.00;;;5.20;;
77018;SDS011;66044;53.142;17.962;2024-01-07T03:56:37;15.50;;;5.60;;
77018;SDS011;66044;53.142;17.962;2024-01-07T03:59:03;13.60;;;5.20;;
77018;SDS011;66044;53.142;17.962;2024-01-07T04:01:30;14.60;;;5.50;;
77018;SDS011;66044;53.142;17.962;2024-01-07T04:03:56;13.20;;;4.70;;
77018;SDS011;66044;53.142;17.962;2024-01-07T04:06:23;14.00;;;5.30;;
77018;SDS011;66044;53.142;17.962;2024-01-07T04:08:49;11.20;;;4.60;;
77018;SDS011;66044;53.142;17.962;2024-01-07T04:11:15;13.40;;;4.80;;
77018;SDS011;66044;53.142;17.962;2024-01-07T04:13:42;10.50;;;4.60;;
77018;SDS011;66044;53.142;17.962;2024-01-07T04:16:18;12.00;;;4.70;;
77018;SDS011;66044;53.142;17.962;2024-01-07T04:18:45;13.30;;;5.10;;
77018;SDS011;66044;53.142;17.962;2024-01-07T04:21:12;13.60;;;5.20;;
77018;SDS011;66044;53.142;17.962;2024-01-07T04:23:39;12.40;;;4.30;;
77018;SDS011;66044;53.142;17.962;2024-01-07T04:26:07;15.90;;;4.90;;
77018;SDS011;66044;53.142;17.962;2024-01-07T04:28:34;10.60;;;4.10;;
77018;SDS011;66044;53.142;17.962;2024-01-07T04:31:00;11.70;;;4.20;;
77018;SDS011;66044;53.142;17.962;2024-01-07T04:33:26;11.80;;;4.90;;
77018;SDS011;66044;53.142;17.962;2024-01-07T04:35:53;9.50;;;4.20;;
77018;SDS011;66044;53.142;17.962;2024-01-07T04:38:24;8.70;;;3.40;;
77018;SDS011;66044;53.142;17.962;2024-01-07T04:40:51;8.50;;;3.60;;
77018;SDS011;66044;53.142;17.962;2024-01-07T04:43:18;9.50;;;3.80;;
77018;SDS011;66044;53.142;17.962;2024-01-07T04:45:45;9.60;;;3.90;;
77018;SDS011;66044;53.142;17.962;2024-01-07T04:48:12;10.10;;;3.90;;
77018;SDS011;66044;53.142;17.962;2024-01-07T04:50:39;11.20;;;3.60;;
77018;SDS011;66044;53.142;17.962;2024-01-07T04:53:08;11.00;;;3.50;;
77018;SDS011;66044;53.142;17.962;2024-01-07T04:55:35;9.70;;;3.60;;
77018;SDS011;66044;53.142;17.962;2024-01-07T04:58:02;9.80;;;3.40;;
77018;SDS011;66044;53.142;17.962;2024-01-07T05:00:30;10.00;;;4.60;;
77018;SDS011;66044;53.142;17.962;2024-01-07T05:02:57;9.50;;;4.20;;
77018;SDS011;66044;53.142;17.962;2024-01-07T05:05:23;8.50;;;3.40;;
77018;SDS011;66044;53.142;17.962;2024-01-07T05:07:50;8.10;;;3.30;;
77018;SDS011;66044;53.142;17.962;2024-01-07T05:10:16;9.50;;;3.40;;
77018;SDS011;66044;53.142;17.962;2024-01-07T05:12:43;9.20;;;3.50;;
77018;SDS011;66044;53.142;17.962;2024-01-07T05:15:09;10.80;;;3.80;;
77018;SDS011;66044;53.142;17.962;2024-01-07T05:17:36;7.90;;;3.20;;
77018;SDS011;66044;53.142;17.962;2024-01-07T05:20:02;8.40;;;3.20;;
77018;SDS011;66044;53.142;17.962;2024-01-07T05:22:29;10.60;;;4.60;;
77018;SDS011;66044;53.142;17.962;2024-01-07T05:24:56;11.90;;;4.10;;
77018;SDS011;66044;53.142;17.962;2024-01-07T05:27:22;9.90;;;3.40;;
77018;SDS011;66044;53.142;17.962;2024-01-07T05:29:48;8.40;;;3.20;;
77018;SDS011;66044;53.142;17.962;2024-01-07T05:32:15;9.20;;;4.30;;
77018;SDS011;66044;53.142;17.962;2024-01-07T05:34:42;10.20;;;4.20;;
77018;SDS011;66044;53.142;17.962;2024-01-07T05:37:08;8.70;;;3.20;;
77018;SDS011;66044;53.142;17.962;2024-01-07T05:39:35;8.50;;;3.40;;
77018;SDS011;66044;53.142;17.962;2024-01-07T05:42:01;10.20;;;4.00;;
77018;SDS011;66044;53.142;17.962;2024-01-07T05:44:27;8.00;;;3.10;;
77018;SDS011;66044;53.142;17.962;2024-01-07T05:46:54;10.90;;;3.80;;
77018;SDS011;66044;53.142;17.962;2024-01-07T05:49:20;10.90;;;3.80;;
77018;SDS011;66044;53.142;17.962;2024-01-07T05:51:47;9.70;;;4.30;;
77018;SDS011;66044;53.142;17.962;2024-01-07T05:54:13;9.50;;;3.90;;
77018;SDS011;66044;53.142;17.962;2024-01-07T05:56:39;11.70;;;4.70;;
77018;SDS011;66044;53.142;17.962;2024-01-07T05:59:06;9.40;;;4.00;;
77018;SDS011;66044;53.142;17.962;2024-01-07T06:01:33;11.90;;;4.80;;
77018;SDS011;66044;53.142;17.962;2024-01-07T06:04:01;13.70;;;4.00;;
77018;SDS011;66044;53.142;17.962;2024-01-07T06:06:27;12.10;;;4.60;;
77018;SDS011;66044;53.142;17.962;2024-01-07T06:08:54;9.50;;;3.90;;
77018;SDS011;66044;53.142;17.962;2024-01-07T06:11:20;10.10;;;4.10;;
77018;SDS011;66044;53.142;17.962;2024-01-07T06:13:46;9.90;;;3.80;;
77018;SDS011;66044;53.142;17.962;2024-01-07T06:16:13;12.00;;;4.20;;
77018;SDS011;66044;53.142;17.962;2024-01-07T06:18:39;9.50;;;3.40;;
77018;SDS011;66044;53.142;17.962;2024-01-07T06:21:06;11.20;;;5.00;;
77018;SDS011;66044;53.142;17.962;2024-01-07T06:23:33;10.60;;;3.90;;
77018;SDS011;66044;53.142;17.962;2024-01-07T06:26:00;9.30;;;3.50;;
77018;SDS011;66044;53.142;17.962;2024-01-07T06:28:26;13.60;;;5.50;;
77018;SDS011;66044;53.142;17.962;2024-01-07T06:30:52;11.50;;;4.10;;
77018;SDS011;66044;53.142;17.962;2024-01-07T06:33:19;7.70;;;2.90;;
77018;SDS011;66044;53.142;17.962;2024-01-07T06:35:47;11.10;;;3.60;;
77018;SDS011;66044;53.142;17.962;2024-01-07T06:38:13;9.80;;;4.00;;
77018;SDS011;66044;53.142;17.962;2024-01-07T06:40:41;9.70;;;3.70;;
77018;SDS011;66044;53.142;17.962;2024-01-07T06:43:08;10.40;;;3.60;;
77018;SDS011;66044;53.142;17.962;2024-01-07T06:45:34;10.60;;;3.80;;
77018;SDS011;66044;53.142;17.962;2024-01-07T06:48:01;11.50;;;4.40;;
77018;SDS011;66044;53.142;17.962;2024-01-07T06:50:29;8.20;;;3.30;;
77018;SDS011;66044;53.142;17.962;2024-01-07T06:52:56;10.30;;;3.80;;
77018;SDS011;66044;53.142;17.962;2024-01-07T06:55:22;10.90;;;4.00;;
77018;SDS011;66044;53.142;17.962;2024-01-07T06:57:49;10.10;;;3.20;;
77018;SDS011;66044;53.142;17.962;2024-01-07T07:00:15;8.00;;;3.40;;
77018;SDS011;66044;53.142;17.962;2024-01-07T07:02:43;9.90;;;3.30;;
77018;SDS011;66044;53.142;17.962;2024-01-07T07:05:10;8.70;;;3.60;;
77018;SDS011;66044;53.142;17.962;2024-01-07T07:07:36;10.00;;;3.60;;
77018;SDS011;66044;53.142;17.962;2024-01-07T07:10:03;10.30;;;3.30;;
77018;SDS011;66044;53.142;17.962;2024-01-07T07:12:30;8.70;;;3.30;;
77018;SDS011;66044;53.142;17.962;2024-01-07T07:14:56;8.90;;;3.70;;
77018;SDS011;66044;53.142;17.962;2024-01-07T07:17:23;9.90;;;3.20;;
77018;SDS011;66044;53.142;17.962;2024-01-07T07:19:49;9.00;;;3.60;;
77018;SDS011;66044;53.142;17.962;2024-01-07T07:22:16;8.80;;;3.30;;
77018;SDS011;66044;53.142;17.962;2024-01-07T07:24:42;8.20;;;3.00;;
77018;SDS011;66044;53.142;17.962;2024-01-07T07:27:09;10.00;;;3.60;;
77018;SDS011;66044;53.142;17.962;2024-01-07T07:29:35;11.00;;;4.30;;
77018;SDS011;66044;53.142;17.962;2024-01-07T07:32:02;9.30;;;3.50;;
77018;SDS011;66044;53.142;17.962;2024-01-07T07:34:28;10.60;;;4.20;;
77018;SDS011;66044;53.142;17.962;2024-01-07T07:36:55;9.80;;;3.40;;
77018;SDS011;66044;53.142;17.962;2024-01-07T07:39:22;10.60;;;4.10;;
77018;SDS011;66044;53.142;17.962;2024-01-07T07:41:48;11.40;;;4.60;;
77018;SDS011;66044;53.142;17.962;2024-01-07T07:44:14;8.80;;;3.70;;
77018;SDS011;66044;53.142;17.962;2024-01-07T07:46:41;11.80;;;4.30;;
77018;SDS011;66044;53.142;17.962;2024-01-07T07:49:07;17.00;;;5.70;;
77018;SDS011;66044;53.142;17.962;2024-01-07T07:51:34;18.90;;;6.10;;
77018;SDS011;66044;53.142;17.962;2024-01-07T07:54:00;21.30;;;8.20;;
77018;SDS011;66044;53.142;17.962;2024-01-07T07:56:27;12.80;;;4.90;;
77018;SDS011;66044;53.142;17.962;2024-01-07T07:58:53;16.90;;;6.60;;
77018;SDS011;66044;53.142;17.962;2024-01-07T08:01:20;20.40;;;6.60;;
77018;SDS011;66044;53.142;17.962;2024-01-07T08:03:46;14.50;;;5.50;;
77018;SDS011;66044;53.142;17.962;2024-01-07T08:06:13;12.90;;;4.40;;
77018;SDS011;66044;53.142;17.962;2024-01-07T08:08:39;11.40;;;4.30;;
77018;SDS011;66044;53.142;17.962;2024-01-07T08:11:06;11.20;;;4.30;;
77018;SDS011;66044;53.142;17.962;2024-01-07T08:13:35;10.50;;;4.80;;
77018;SDS011;66044;53.142;17.962;2024-01-07T08:16:03;12.90;;;5.00;;
77018;SDS011;66044;53.142;17.962;2024-01-07T08:18:36;10.10;;;4.10;;
77018;SDS011;66044;53.142;17.962;2024-01-07T08:21:02;9.40;;;4.30;;
77018;SDS011;66044;53.142;17.962;2024-01-07T08:23:29;11.70;;;5.20;;
77018;SDS011;66044;53.142;17.962;2024-01-07T08:25:58;9.90;;;4.00;;
77018;SDS011;66044;53.142;17.962;2024-01-07T08:28:26;9.50;;;4.40;;
77018;SDS011;66044;53.142;17.962;2024-01-07T08:30:54;11.30;;;5.50;;
77018;SDS011;66044;53.142;17.962;2024-01-07T08:33:22;23.80;;;8.30;;
77018;SDS011;66044;53.142;17.962;2024-01-07T08:35:48;33.30;;;10.10;;
77018;SDS011;66044;53.142;17.962;2024-01-07T08:38:15;18.70;;;7.00;;
77018;SDS011;66044;53.142;17.962;2024-01-07T08:40:41;15.60;;;6.00;;
77018;SDS011;66044;53.142;17.962;2024-01-07T08:43:07;16.20;;;5.30;;
77018;SDS011;66044;53.142;17.962;2024-01-07T08:45:34;15.30;;;5.60;;
77018;SDS011;66044;53.142;17.962;2024-01-07T08:48:02;12.00;;;4.80;;
77018;SDS011;66044;53.142;17.962;2024-01-07T08:50:29;12.40;;;4.40;;
77018;SDS011;66044;53.142;17.962;2024-01-07T08:52:56;11.50;;;4.40;;
77018;SDS011;66044;53.142;17.962;2024-01-07T08:55:22;10.10;;;4.10;;
77018;SDS011;66044;53.142;17.962;2024-01-07T08:57:49;14.70;;;5.70;;
77018;SDS011;66044;53.142;17.962;2024-01-07T09:00:15;23.50;;;8.40;;
77018;SDS011;66044;53.142;17.962;2024-01-07T09:02:42;21.00;;;7.90;;
77018;SDS011;66044;53.142;17.962;2024-01-07T09:05:08;15.30;;;5.90;;
77018;SDS011;66044;53.142;17.962;2024-01-07T09:07:35;11.30;;;4.50;;
77018;SDS011;66044;53.142;17.962;2024-01-07T09:10:01;13.10;;;4.70;;
77018;SDS011;66044;53.142;17.962;2024-01-07T09:12:28;11.60;;;4.90;;
77018;SDS011;66044;53.142;17.962;2024-01-07T09:14:54;12.50;;;5.30;;
77018;SDS011;66044;53.142;17.962;2024-01-07T09:17:21;13.60;;;6.00;;
77018;SDS011;66044;53.142;17.962;2024-01-07T09:19:48;13.80;;;5.00;;
77018;SDS011;66044;53.142;17.962;2024-01-07T09:22:15;12.40;;;5.60;;
77018;SDS011;66044;53.142;17.962;2024-01-07T09:24:41;12.70;;;4.90;;
77018;SDS011;66044;53.142;17.962;2024-01-07T09:27:09;13.90;;;5.10;;
77018;SDS011;66044;53.142;17.962;2024-01-07T09:29:36;12.20;;;4.80;;
77018;SDS011;66044;53.142;17.962;2024-01-07T09:32:02;13.60;;;5.90;;
77018;SDS011;66044;53.142;17.962;2024-01-07T09:34:29;12.70;;;3.80;;
77018;SDS011;66044;53.142;17.962;2024-01-07T09:36:55;12.20;;;5.20;;
77018;SDS011;66044;53.142;17.962;2024-01-07T09:39:22;13.80;;;4.50;;
77018;SDS011;66044;53.142;17.962;2024-01-07T09:41:48;12.00;;;4.60;;
77018;SDS011;66044;53.142;17.962;2024-01-07T09:44:15;12.20;;;5.00;;
77018;SDS011;66044;53.142;17.962;2024-01-07T09:46:43;14.50;;;5.80;;
77018;SDS011;66044;53.142;17.962;2024-01-07T09:49:12;15.60;;;5.60;;
77018;SDS011;66044;53.142;17.962;2024-01-07T09:51:39;19.60;;;7.70;;
77018;SDS011;66044;53.142;17.962;2024-01-07T09:54:08;15.60;;;6.10;;
77018;SDS011;66044;53.142;17.962;2024-01-07T09:56:42;12.50;;;4.80;;
77018;SDS011;66044;53.142;17.962;2024-01-07T09:59:11;11.60;;;4.40;;
77018;SDS011;66044;53.142;17.962;2024-01-07T10:01:40;10.40;;;3.70;;
77018;SDS011;66044;53.142;17.962;2024-01-07T10:04:07;10.20;;;3.90;;
77018;SDS011;66044;53.142;17.962;2024-01-07T10:06:33;14.30;;;5.20;;
77018;SDS011;66044;53.142;17.962;2024-01-07T10:09:00;13.60;;;5.30;;
77018;SDS011;66044;53.142;17.962;2024-01-07T10:11:32;14.40;;;4.50;;
77018;SDS011;66044;53.142;17.962;2024-01-07T10:14:00;10.10;;;3.40;;
77018;SDS011;66044;53.142;17.962;2024-01-07T10:16:26;19.30;;;5.30;;
77018;SDS011;66044;53.142;17.962;2024-01-07T10:19:12;13.90;;;6.60;;
77018;SDS011;66044;53.142;17.962;2024-01-07T10:21:45;9.80;;;4.30;;
77018;SDS011;66044;53.142;17.962;2024-01-07T10:24:12;10.10;;;4.40;;
77018;SDS011;66044;53.142;17.962;2024-01-07T10:26:52;11.30;;;4.00;;
77018;SDS011;66044;53.142;17.962;2024-01-07T10:29:18;11.30;;;4.00;;
77018;SDS011;66044;53.142;17.962;2024-01-07T10:31:47;10.20;;;4.60;;
77018;SDS011;66044;53.142;17.962;2024-01-07T10:34:13;13.90;;;4.40;;
77018;SDS011;66044;53.142;17.962;2024-01-07T10:36:39;13.50;;;5.30;;
77018;SDS011;66044;53.142;17.962;2024-01-07T10:39:07;11.90;;;4.20;;
77018;SDS011;66044;53.142;17.962;2024-01-07T10:41:34;14.80;;;5.00;;
77018;SDS011;66044;53.142;17.962;2024-01-07T10:44:04;16.10;;;6.50;;
77018;SDS011;66044;53.142;17.962;2024-01-07T10:46:31;11.60;;;4.70;;
77018;SDS011;66044;53.142;17.962;2024-01-07T10:49:00;13.30;;;5.00;;
77018;SDS011;66044;53.142;17.962;2024-01-07T10:51:32;10.60;;;4.60;;
77018;SDS011;66044;53.142;17.962;2024-01-07T10:54:00;12.20;;;5.10;;
77018;SDS011;66044;53.142;17.962;2024-01-07T10:56:38;15.20;;;5.10;;
77018;SDS011;66044;53.142;17.962;2024-01-07T10:59:11;15.80;;;6.40;;
77018;SDS011;66044;53.142;17.962;2024-01-07T11:01:37;13.60;;;4.90;;
77018;SDS011;66044;53.142;17.962;2024-01-07T11:04:26;14.60;;;5.90;;
77018;SDS011;66044;53.142;17.962;2024-01-07T11:07:03;12.00;;;5.50;;
77018;SDS011;66044;53.142;17.962;2024-01-07T11:10:00;11.60;;;4.70;;
77018;SDS011;66044;53.142;17.962;2024-01-07T11:12:32;12.80;;;4.60;;
77018;SDS011;66044;53.142;17.962;2024-01-07T11:14:59;16.80;;;6.00;;
77018;SDS011;66044;53.142;17.962;2024-01-07T11:19:59;14.20;;;5.80;;
77018;SDS011;66044;53.142;17.962;2024-01-07T11:22:28;12.90;;;5.10;;
77018;SDS011;66044;53.142;17.962;2024-01-07T11:24:55;12.40;;;4.30;;
77018;SDS011;66044;53.142;17.962;2024-01-07T11:27:23;12.20;;;4.40;;
77018;SDS011;66044;53.142;17.962;2024-01-07T11:30:06;15.50;;;5.60;;
77018;SDS011;66044;53.142;17.962;2024-01-07T11:32:57;13.40;;;4.20;;
77018;SDS011;66044;53.142;17.962;2024-01-07T11:38:20;10.00;;;4.20;;
77018;SDS011;66044;53.142;17.962;2024-01-07T11:40:47;10.70;;;4.60;;
77018;SDS011;66044;53.142;17.962;2024-01-07T11:43:16;13.10;;;4.80;;
77018;SDS011;66044;53.142;17.962;2024-01-07T11:45:42;12.40;;;5.10;;
77018;SDS011;66044;53.142;17.962;2024-01-07T11:48:09;11.40;;;4.60;;
77018;SDS011;66044;53.142;17.962;2024-01-07T11:53:31;18.50;;;6.70;;
77018;SDS011;66044;53.142;17.962;2024-01-07T11:56:00;12.10;;;4.70;;
77018;SDS011;66044;53.142;17.962;2024-01-07T11:58:26;15.10;;;5.10;;
77018;SDS011;66044;53.142;17.962;2024-01-07T12:00:53;15.50;;;5.40;;
77018;SDS011;66044;53.142;17.962;2024-01-07T12:03:19;12.10;;;4.50;;
77018;SDS011;66044;53.142;17.962;2024-01-07T12:05:46;11.20;;;4.90;;
77018;SDS011;66044;53.142;17.962;2024-01-07T12:08:14;13.50;;;5.10;;
77018;SDS011;66044;53.142;17.962;2024-01-07T12:10:42;11.10;;;4.50;;
77018;SDS011;66044;53.142;17.962;2024-01-07T12:13:08;11.60;;;4.90;;
77018;SDS011;66044;53.142;17.962;2024-01-07T12:15:37;13.40;;;6.20;;
77018;SDS011;66044;53.142;17.962;2024-01-07T12:18:05;9.90;;;4.40;;
77018;SDS011;66044;53.142;17.962;2024-01-07T12:20:32;12.50;;;4.40;;
77018;SDS011;66044;53.142;17.962;2024-01-07T12:23:05;11.70;;;5.00;;
77018;SDS011;66044;53.142;17.962;2024-01-07T12:25:36;14.70;;;6.50;;
77018;SDS011;66044;53.142;17.962;2024-01-07T12:28:05;11.20;;;5.00;;
77018;SDS011;66044;53.142;17.962;2024-01-07T12:30:33;16.80;;;6.50;;
77018;SDS011;66044;53.142;17.962;2024-01-07T12:33:00;12.80;;;5.10;;
77018;SDS011;66044;53.142;17.962;2024-01-07T12:35:31;16.70;;;6.00;;
77018;SDS011;66044;53.142;17.962;2024-01-07T12:37:59;14.70;;;6.10;;
77018;SDS011;66044;53.142;17.962;2024-01-07T12:40:25;20.90;;;7.90;;
77018;SDS011;66044;53.142;17.962;2024-01-07T12:42:53;18.00;;;6.50;;
77018;SDS011;66044;53.142;17.962;2024-01-07T12:45:19;14.80;;;5.90;;
77018;SDS011;66044;53.142;17.962;2024-01-07T12:47:46;13.60;;;4.60;;
77018;SDS011;66044;53.142;17.962;2024-01-07T12:50:13;12.40;;;4.70;;
77018;SDS011;66044;53.142;17.962;2024-01-07T12:52:39;11.50;;;4.40;;
77018;SDS011;66044;53.142;17.962;2024-01-07T12:55:06;9.10;;;4.00;;
77018;SDS011;66044;53.142;17.962;2024-01-07T12:57:33;14.30;;;6.10;;
77018;SDS011;66044;53.142;17.962;2024-01-07T13:00:01;14.10;;;5.00;;
77018;SDS011;66044;53.142;17.962;2024-01-07T13:02:32;15.40;;;5.00;;
77018;SDS011;66044;53.142;17.962;2024-01-07T13:05:00;16.00;;;6.80;;
77018;SDS011;66044;53.142;17.962;2024-01-07T13:07:27;13.40;;;5.80;;
77018;SDS011;66044;53.142;17.962;2024-01-07T13:09:54;10.80;;;4.90;;
77018;SDS011;66044;53.142;17.962;2024-01-07T13:12:20;14.60;;;5.80;;
77018;SDS011;66044;53.142;17.962;2024-01-07T13:14:47;14.70;;;5.80;;
77018;SDS011;66044;53.142;17.962;2024-01-07T13:17:13;15.80;;;5.70;;
77018;SDS011;66044;53.142;17.962;2024-01-07T13:19:40;16.30;;;6.30;;
77018;SDS011;66044;53.142;17.962;2024-01-07T13:22:07;14.30;;;5.20;;
77018;SDS011;66044;53.142;17.962;2024-01-07T13:24:34;12.10;;;4.90;;
77018;SDS011;66044;53.142;17.962;2024-01-07T13:27:01;15.90;;;7.10;;
77018;SDS011;66044;53.142;17.962;2024-01-07T13:29:27;14.70;;;5.10;;
77018;SDS011;66044;53.142;17.962;2024-01-07T13:31:54;17.20;;;5.90;;
77018;SDS011;66044;53.142;17.962;2024-01-07T13:34:20;14.60;;;5.40;;
77018;SDS011;66044;53.142;17.962;2024-01-07T13:36:47;15.00;;;5.20;;
77018;SDS011;66044;53.142;17.962;2024-01-07T13:39:13;14.10;;;5.30;;
77018;SDS011;66044;53.142;17.962;2024-01-07T13:41:42;12.40;;;4.60;;
77018;SDS011;66044;53.142;17.962;2024-01-07T13:44:10;16.60;;;6.20;;
77018;SDS011;66044;53.142;17.962;2024-01-07T13:46:44;14.20;;;5.60;;
77018;SDS011;66044;53.142;17.962;2024-01-07T13:49:15;13.50;;;5.30;;
77018;SDS011;66044;53.142;17.962;2024-01-07T13:51:41;13.70;;;6.40;;
77018;SDS011;66044;53.142;17.962;2024-01-07T13:54:08;16.20;;;6.20;;
77018;SDS011;66044;53.142;17.962;2024-01-07T13:56:39;13.60;;;5.10;;
77018;SDS011;66044;53.142;17.962;2024-01-07T13:59:08;16.80;;;6.60;;
77018;SDS011;66044;53.142;17.962;2024-01-07T14:01:35;15.40;;;5.70;;
77018;SDS011;66044;53.142;17.962;2024-01-07T14:04:01;14.50;;;5.80;;
77018;SDS011;66044;53.142;17.962;2024-01-07T14:06:28;13.80;;;5.30;;
77018;SDS011;66044;53.142;17.962;2024-01-07T14:08:55;12.60;;;5.20;;
77018;SDS011;66044;53.142;17.962;2024-01-07T14:11:22;16.10;;;6.20;;
77018;SDS011;66044;53.142;17.962;2024-01-07T14:13:54;13.30;;;5.30;;
77018;SDS011;66044;53.142;17.962;2024-01-07T14:16:20;22.60;;;7.00;;
77018;SDS011;66044;53.142;17.962;2024-01-07T14:18:47;16.80;;;7.50;;
77018;SDS011;66044;53.142;17.962;2024-01-07T14:21:13;16.00;;;6.90;;
77018;SDS011;66044;53.142;17.962;2024-01-07T14:23:39;13.50;;;5.40;;
77018;SDS011;66044;53.142;17.962;2024-01-07T14:26:06;13.00;;;5.90;;
77018;SDS011;66044;53.142;17.962;2024-01-07T14:28:32;15.40;;;6.50;;
77018;SDS011;66044;53.142;17.962;2024-01-07T14:30:59;16.90;;;7.30;;
77018;SDS011;66044;53.142;17.962;2024-01-07T14:33:30;13.50;;;5.40;;
77018;SDS011;66044;53.142;17.962;2024-01-07T14:35:57;14.10;;;6.10;;